Time;durP1;ratioP1;P1;durP2;ratioP2;P2;SDS_P1;SDS_P2;PMS_P1;PMS_P2;Temp;Humidity;BMP_temperature;BMP_pressure;BME280_temperature;BME280_humidity;BME280_pressure;Samples;Min_cycle;Max_cycle;Signal;HPM_P1;HPM_P2
2022/04/08 00:01:35;;;;;;;28.23;5.72;;;;;;;;;;5097879;28;20023;-70
2022/04/08 00:04:01;;;;;;;15.50;5.78;;;;;;;;;;5097760;28;20027;-70
2022/04/08 00:06:27;;;;;;;15.10;4.13;;;;;;;;;;5097770;28;20027;-70
2022/04/08 00:08:53;;;;;;;21.13;5.60;;;;;;;;;;5097643;28;20028;-70
2022/04/08 00:11:19;;;;;;;22.88;6.43;;;;;;;;;;5097125;28;20157;-70
2022/04/08 00:13:45;;;;;;;31.42;5.68;;;;;;;;;;5097621;28;20034;-70
2022/04/08 00:16:11;;;;;;;20.33;5.68;;;;;;;;;;5097630;28;20017;-70
2022/04/08 00:18:39;;;;;;;19.02;6.18;;;;;;;;;;5097571;28;20020;-70
2022/04/08 00:21:06;;;;;;;17.85;5.85;;;;;;;;;;5097519;28;20027;-70
2022/04/08 00:23:32;;;;;;;28.80;6.20;;;;;;;;;;5097517;28;20016;-70
2022/04/08 00:25:58;;;;;;;27.45;7.03;;;;;;;;;;5097462;28;20024;-70
2022/04/08 00:28:24;;;;;;;25.88;6.82;;;;;;;;;;5096840;28;20027;-70
2022/04/08 00:30:50;;;;;;;52.65;8.05;;;;;;;;;;5097379;28;20024;-70
2022/04/08 00:33:16;;;;;;;37.92;7.63;;;;;;;;;;5096831;28;20336;-70
2022/04/08 00:35:41;;;;;;;31.83;8.57;;;;;;;;;;5097948;28;20103;-70
2022/04/08 00:38:07;;;;;;;21.75;7.10;;;;;;;;;;5097211;28;20024;-70
2022/04/08 00:40:34;;;;;;;18.83;5.40;;;;;;;;;;5097336;28;20356;-70
2022/04/08 00:43:16;;;;;;;31.77;7.00;;;;;;;;;;5097298;28;20437;-70
2022/04/08 00:45:43;;;;;;;22.98;5.45;;;;;;;;;;5096093;28;20024;-70
2022/04/08 00:48:09;;;;;;;22.95;5.70;;;;;;;;;;5097196;28;20020;-70
2022/04/08 00:50:36;;;;;;;28.35;7.07;;;;;;;;;;5101477;28;20099;-70
2022/04/08 00:53:02;;;;;;;30.42;6.25;;;;;;;;;;5101398;28;20024;-70
2022/04/08 00:55:28;;;;;;;33.78;7.88;;;;;;;;;;5099604;28;20106;-70
2022/04/08 00:57:54;;;;;;;27.67;7.35;;;;;;;;;;5101046;28;20020;-70
2022/04/08 01:00:22;;;;;;;24.75;7.78;;;;;;;;;;5101139;28;20074;-70
2022/04/08 01:02:48;;;;;;;31.38;7.82;;;;;;;;;;5101142;28;20024;-70
2022/04/08 01:05:15;;;;;;;29.58;7.97;;;;;;;;;;5100280;28;20065;-70
2022/04/08 01:07:41;;;;;;;45.05;8.55;;;;;;;;;;5100935;28;20020;-70
2022/04/08 01:10:07;;;;;;;38.40;12.52;;;;;;;;;;5101392;28;20035;-71
2022/04/08 01:12:33;;;;;;;33.70;8.85;;;;;;;;;;5100344;28;20103;-70
2022/04/08 01:14:59;;;;;;;35.20;11.05;;;;;;;;;;5100598;28;20108;-70
2022/04/08 01:17:26;;;;;;;39.00;8.10;;;;;;;;;;5100254;28;20020;-70
2022/04/08 01:19:52;;;;;;;26.13;6.22;;;;;;;;;;5100211;28;20043;-70
2022/04/08 01:22:19;;;;;;;31.83;7.22;;;;;;;;;;5100331;28;20054;-70
2022/04/08 01:24:51;;;;;;;30.95;7.78;;;;;;;;;;5099811;28;20020;-71
2022/04/08 01:27:19;;;;;;;33.83;8.90;;;;;;;;;;5098999;28;20016;-71
2022/04/08 01:29:45;;;;;;;31.55;9.43;;;;;;;;;;5098589;28;20107;-71
2022/04/08 01:32:11;;;;;;;42.53;9.82;;;;;;;;;;5099808;28;20026;-71
2022/04/08 01:34:37;;;;;;;28.13;8.30;;;;;;;;;;5098254;28;20020;-70
2022/04/08 01:37:04;;;;;;;36.33;10.40;;;;;;;;;;5098546;28;20072;-70
2022/04/08 01:39:29;;;;;;;36.55;9.75;;;;;;;;;;5100389;28;20088;-70
2022/04/08 01:41:55;;;;;;;37.38;7.50;;;;;;;;;;5099089;28;20023;-71
2022/04/08 01:44:21;;;;;;;33.13;8.07;;;;;;;;;;5098022;28;20027;-70
2022/04/08 01:46:47;;;;;;;39.67;7.70;;;;;;;;;;5098929;28;20012;-70
2022/04/08 01:49:13;;;;;;;38.33;8.65;;;;;;;;;;5097666;28;20460;-70
2022/04/08 01:51:39;;;;;;;22.88;6.75;;;;;;;;;;5098528;28;20337;-70
2022/04/08 01:54:05;;;;;;;32.72;7.43;;;;;;;;;;5099569;28;20031;-70
2022/04/08 01:56:31;;;;;;;30.13;8.38;;;;;;;;;;5099993;28;20020;-70
2022/04/08 01:58:57;;;;;;;23.95;6.95;;;;;;;;;;5099096;28;20077;-70
2022/04/08 02:01:23;;;;;;;38.00;6.85;;;;;;;;;;5098288;28;20026;-70
2022/04/08 02:03:49;;;;;;;45.92;8.63;;;;;;;;;;5099286;28;20031;-70
2022/04/08 02:06:15;;;;;;;31.00;5.93;;;;;;;;;;5099251;28;20467;-70
2022/04/08 02:08:41;;;;;;;24.23;5.03;;;;;;;;;;5099428;28;20119;-70
2022/04/08 02:11:07;;;;;;;23.33;5.78;;;;;;;;;;5098662;28;20024;-70
2022/04/08 02:13:33;;;;;;;28.85;5.43;;;;;;;;;;5099328;28;20027;-71
2022/04/08 02:15:59;;;;;;;26.48;8.43;;;;;;;;;;5098534;28;20020;-71
2022/04/08 02:18:25;;;;;;;38.05;7.28;;;;;;;;;;5099107;28;20092;-71
2022/04/08 02:20:51;;;;;;;25.25;7.45;;;;;;;;;;5099272;28;20337;-71
2022/04/08 02:23:17;;;;;;;34.35;7.00;;;;;;;;;;5097827;28;20019;-71
2022/04/08 02:25:46;;;;;;;34.83;6.88;;;;;;;;;;5099578;28;20020;-71
2022/04/08 02:28:12;;;;;;;31.73;10.00;;;;;;;;;;5100921;28;20016;-71
2022/04/08 02:30:38;;;;;;;32.70;6.65;;;;;;;;;;5099960;28;20016;-72
2022/04/08 02:33:04;;;;;;;35.92;7.43;;;;;;;;;;5098941;28;20016;-71
2022/04/08 02:35:31;;;;;;;28.98;5.75;;;;;;;;;;5099958;28;20404;-71
2022/04/08 02:37:57;;;;;;;27.58;6.78;;;;;;;;;;5097096;28;20069;-71
2022/04/08 02:40:23;;;;;;;23.60;5.20;;;;;;;;;;5098939;28;20020;-71
2022/04/08 02:42:49;;;;;;;32.50;7.22;;;;;;;;;;5080265;28;20105;-72
2022/04/08 02:45:16;;;;;;;25.70;6.85;;;;;;;;;;5097416;28;20326;-71
2022/04/08 02:47:46;;;;;;;27.23;6.13;;;;;;;;;;5098632;28;20017;-71
2022/04/08 02:50:12;;;;;;;21.83;5.80;;;;;;;;;;5095939;28;20296;-71
2022/04/08 02:52:38;;;;;;;25.60;6.22;;;;;;;;;;5096352;28;20110;-71
2022/04/08 02:55:05;;;;;;;19.30;5.53;;;;;;;;;;5095657;28;20016;-72
2022/04/08 02:57:31;;;;;;;21.90;6.22;;;;;;;;;;5096246;28;20421;-72
2022/04/08 02:59:59;;;;;;;36.53;9.50;;;;;;;;;;5093449;28;20034;-72
2022/04/08 03:02:25;;;;;;;35.42;6.88;;;;;;;;;;5095344;28;20016;-72
2022/04/08 03:04:51;;;;;;;27.02;6.28;;;;;;;;;;5093801;28;20345;-72
2022/04/08 03:07:18;;;;;;;22.38;6.30;;;;;;;;;;5095376;28;20019;-71
2022/04/08 03:09:45;;;;;;;30.80;6.07;;;;;;;;;;5094090;28;20425;-71
2022/04/08 03:12:11;;;;;;;31.88;7.57;;;;;;;;;;5093631;28;20016;-71
2022/04/08 03:14:37;;;;;;;21.08;5.10;;;;;;;;;;5090784;28;20099;-71
2022/04/08 03:17:04;;;;;;;31.83;8.43;;;;;;;;;;5076700;28;20567;-71
2022/04/08 03:19:30;;;;;;;27.63;4.82;;;;;;;;;;5089971;28;20016;-71
2022/04/08 03:21:56;;;;;;;38.47;8.25;;;;;;;;;;5090071;28;20024;-71
2022/04/08 03:24:22;;;;;;;23.70;4.68;;;;;;;;;;5092961;28;20217;-72
2022/04/08 03:26:48;;;;;;;42.47;10.32;;;;;;;;;;5092920;28;20016;-71
2022/04/08 03:29:15;;;;;;;24.42;6.55;;;;;;;;;;5095115;28;20384;-71
2022/04/08 03:31:41;;;;;;;23.70;4.70;;;;;;;;;;5096722;28;20016;-71
2022/04/08 03:34:07;;;;;;;25.50;5.43;;;;;;;;;;5092909;28;20417;-71
2022/04/08 03:36:33;;;;;;;27.27;6.20;;;;;;;;;;5095806;28;20020;-71
2022/04/08 03:38:59;;;;;;;18.85;4.47;;;;;;;;;;5091581;28;20111;-71
2022/04/08 03:41:25;;;;;;;22.17;5.43;;;;;;;;;;5091984;28;20012;-71
2022/04/08 03:43:51;;;;;;;16.67;4.65;;;;;;;;;;5091314;28;20043;-71
2022/04/08 03:46:17;;;;;;;24.20;5.70;;;;;;;;;;5092203;28;20027;-71
2022/04/08 03:48:43;;;;;;;29.02;5.50;;;;;;;;;;5096151;28;20075;-71
2022/04/08 03:51:09;;;;;;;30.58;7.18;;;;;;;;;;5095731;28;20073;-71
2022/04/08 03:53:35;;;;;;;25.50;6.38;;;;;;;;;;5095240;28;20032;-71
2022/04/08 03:56:02;;;;;;;18.35;6.07;;;;;;;;;;5094578;28;20031;-71
2022/04/08 03:58:28;;;;;;;27.77;4.90;;;;;;;;;;5093620;28;20036;-71
2022/04/08 04:00:55;;;;;;;29.98;4.25;;;;;;;;;;5095554;28;20027;-71
2022/04/08 04:03:21;;;;;;;18.60;4.18;;;;;;;;;;5095523;28;20024;-72
2022/04/08 04:05:48;;;;;;;19.98;4.68;;;;;;;;;;5090688;28;20050;-71
2022/04/08 04:08:20;;;;;;;18.98;7.03;;;;;;;;;;5077851;28;20028;-72
2022/04/08 04:10:46;;;;;;;32.65;7.95;;;;;;;;;;5094570;28;20047;-71
2022/04/08 04:13:12;;;;;;;17.52;4.07;;;;;;;;;;5094606;28;20027;-71
2022/04/08 04:15:38;;;;;;;32.10;6.47;;;;;;;;;;5094319;28;20012;-72
2022/04/08 04:18:05;;;;;;;27.08;6.13;;;;;;;;;;5092929;28;20035;-71
2022/04/08 04:20:31;;;;;;;21.58;4.93;;;;;;;;;;5091010;28;20046;-71
2022/04/08 04:22:57;;;;;;;21.88;6.20;;;;;;;;;;5092180;28;20027;-70
2022/04/08 04:25:24;;;;;;;22.27;5.93;;;;;;;;;;5093473;28;20016;-71
2022/04/08 04:27:50;;;;;;;21.25;7.00;;;;;;;;;;5097915;28;20176;-71
2022/04/08 04:30:16;;;;;;;24.95;4.63;;;;;;;;;;5091816;28;20044;-71
2022/04/08 04:32:43;;;;;;;30.15;4.28;;;;;;;;;;5077754;28;20063;-72
2022/04/08 04:35:09;;;;;;;24.48;9.10;;;;;;;;;;5093035;28;20036;-72
2022/04/08 04:37:36;;;;;;;25.27;5.22;;;;;;;;;;5094857;28;20027;-72
2022/04/08 04:40:02;;;;;;;25.75;5.82;;;;;;;;;;5097379;28;20035;-73
2022/04/08 04:42:28;;;;;;;22.80;6.35;;;;;;;;;;5097956;28;20020;-72
2022/04/08 04:44:55;;;;;;;23.70;5.70;;;;;;;;;;5094621;28;20429;-73
2022/04/08 04:47:22;;;;;;;23.25;4.97;;;;;;;;;;5099069;28;20126;-73
2022/04/08 04:49:49;;;;;;;24.98;5.20;;;;;;;;;;5098426;28;20055;-72
2022/04/08 04:52:15;;;;;;;24.30;5.15;;;;;;;;;;5099965;28;20012;-72
2022/04/08 04:54:41;;;;;;;28.67;5.05;;;;;;;;;;5096637;28;20016;-73
2022/04/08 04:57:07;;;;;;;23.67;5.32;;;;;;;;;;5100630;28;20031;-73
2022/04/08 04:59:34;;;;;;;17.38;4.35;;;;;;;;;;5101210;28;20020;-72
2022/04/08 05:02:00;;;;;;;23.45;4.85;;;;;;;;;;5080019;28;20044;-73
2022/04/08 05:04:26;;;;;;;27.23;6.45;;;;;;;;;;5096447;28;20024;-73
2022/04/08 05:06:52;;;;;;;22.67;6.63;;;;;;;;;;5099263;28;20119;-72
2022/04/08 05:09:19;;;;;;;15.00;5.68;;;;;;;;;;5096523;28;20408;-72
2022/04/08 05:11:45;;;;;;;26.20;7.10;;;;;;;;;;5101186;28;20440;-73
2022/04/08 05:14:11;;;;;;;28.85;7.88;;;;;;;;;;5098147;28;20032;-72
2022/04/08 05:16:37;;;;;;;29.85;6.00;;;;;;;;;;5100747;28;20016;-73
2022/04/08 05:19:03;;;;;;;28.77;6.68;;;;;;;;;;5102044;28;20067;-73
2022/04/08 05:21:30;;;;;;;20.02;6.20;;;;;;;;;;5098729;28;20381;-74
2022/04/08 05:23:56;;;;;;;21.10;4.38;;;;;;;;;;5097986;28;20024;-72
2022/04/08 05:26:22;;;;;;;20.70;5.10;;;;;;;;;;5097524;28;20024;-74
2022/04/08 05:28:48;;;;;;;36.08;6.43;;;;;;;;;;5098045;28;20039;-73
2022/04/08 05:31:15;;;;;;;29.13;6.05;;;;;;;;;;5096859;28;20020;-72
2022/04/08 05:33:41;;;;;;;31.33;7.68;;;;;;;;;;5097225;28;20020;-73
2022/04/08 05:36:07;;;;;;;30.60;5.43;;;;;;;;;;5100710;28;20016;-72
2022/04/08 05:38:33;;;;;;;19.85;4.45;;;;;;;;;;5101198;28;20035;-73
2022/04/08 05:40:59;;;;;;;26.70;6.53;;;;;;;;;;5099604;28;20027;-73
2022/04/08 05:43:26;;;;;;;22.30;5.93;;;;;;;;;;5100845;28;20032;-73
2022/04/08 05:45:52;;;;;;;23.42;4.18;;;;;;;;;;5098343;28;20016;-73
2022/04/08 05:48:18;;;;;;;41.63;9.40;;;;;;;;;;5098193;28;20039;-74
2022/04/08 05:50:44;;;;;;;33.75;6.47;;;;;;;;;;5097000;28;20020;-73
2022/04/08 05:53:11;;;;;;;23.10;4.95;;;;;;;;;;5099838;28;20016;-75
2022/04/08 05:55:37;;;;;;;24.90;5.85;;;;;;;;;;5081209;28;20020;-73
2022/04/08 05:58:03;;;;;;;18.75;4.70;;;;;;;;;;5098571;28;20031;-74
2022/04/08 06:00:31;;;;;;;24.00;5.22;;;;;;;;;;5097530;28;20012;-74
2022/04/08 06:02:57;;;;;;;29.15;6.10;;;;;;;;;;5094559;28;20419;-74
2022/04/08 06:05:25;;;;;;;20.10;5.13;;;;;;;;;;5096480;28;20020;-72
2022/04/08 06:07:52;;;;;;;27.80;6.68;;;;;;;;;;5097816;28;20013;-74
2022/04/08 06:10:21;;;;;;;27.73;6.15;;;;;;;;;;5097236;28;20032;-73
2022/04/08 06:12:49;;;;;;;34.97;9.77;;;;;;;;;;5098402;28;20036;-72
2022/04/08 06:15:16;;;;;;;35.58;9.57;;;;;;;;;;5079760;28;20031;-72
2022/04/08 06:17:43;;;;;;;44.47;12.55;;;;;;;;;;5096788;28;20027;-72
2022/04/08 06:20:11;;;;;;;45.97;11.52;;;;;;;;;;5081210;28;20024;-73
2022/04/08 06:22:39;;;;;;;35.60;10.48;;;;;;;;;;5078642;28;20030;-73
2022/04/08 06:25:06;;;;;;;34.95;13.20;;;;;;;;;;5098576;28;20131;-73
2022/04/08 06:27:32;;;;;;;40.50;11.75;;;;;;;;;;5100147;28;20020;-74
2022/04/08 06:29:59;;;;;;;33.83;13.38;;;;;;;;;;5079925;28;20085;-73
2022/04/08 06:32:25;;;;;;;30.70;10.48;;;;;;;;;;5098015;28;20024;-73
2022/04/08 06:34:51;;;;;;;34.08;11.23;;;;;;;;;;5110001;22;20134;-73
2022/04/08 06:37:17;;;;;;;39.95;12.65;;;;;;;;;;5120365;28;20015;-73
2022/04/08 06:39:45;;;;;;;37.67;11.50;;;;;;;;;;5120786;28;20056;-73
2022/04/08 06:42:11;;;;;;;36.33;10.52;;;;;;;;;;5119875;28;20244;-73
2022/04/08 06:44:37;;;;;;;40.90;13.23;;;;;;;;;;5119403;28;20020;-73
2022/04/08 06:47:04;;;;;;;41.05;13.52;;;;;;;;;;5116309;28;20020;-72
2022/04/08 06:49:30;;;;;;;45.38;11.70;;;;;;;;;;5118117;28;20039;-71
2022/04/08 06:51:58;;;;;;;40.15;10.93;;;;;;;;;;5120343;28;20019;-74
2022/04/08 06:54:25;;;;;;;39.03;14.45;;;;;;;;;;5121344;28;20015;-72
2022/04/08 06:56:51;;;;;;;45.25;12.80;;;;;;;;;;5117568;28;20069;-72
2022/04/08 06:59:18;;;;;;;42.17;13.52;;;;;;;;;;5117716;28;20485;-73
2022/04/08 07:01:44;;;;;;;42.70;13.95;;;;;;;;;;5117056;28;20019;-73
2022/04/08 07:04:10;;;;;;;38.15;11.43;;;;;;;;;;5117696;28;20027;-73
2022/04/08 07:06:36;;;;;;;43.65;13.15;;;;;;;;;;5119278;28;20015;-73
2022/04/08 07:09:03;;;;;;;48.33;11.70;;;;;;;;;;5117440;28;20448;-72
2022/04/08 07:11:29;;;;;;;40.60;12.35;;;;;;;;;;5122583;28;20020;-73
2022/04/08 07:13:55;;;;;;;45.17;13.25;;;;;;;;;;5118059;28;20031;-73
2022/04/08 07:16:23;;;;;;;36.90;12.10;;;;;;;;;;5115822;27;20016;-74
2022/04/08 07:18:49;;;;;;;40.17;11.23;;;;;;;;;;5120292;28;20333;-75
2022/04/08 07:21:15;;;;;;;44.00;12.63;;;;;;;;;;5118471;28;20016;-73
2022/04/08 07:23:41;;;;;;;44.05;15.38;;;;;;;;;;5117949;28;20092;-73
2022/04/08 07:26:08;;;;;;;48.83;13.50;;;;;;;;;;5116744;28;20015;-74
2022/04/08 07:28:34;;;;;;;38.03;12.82;;;;;;;;;;5116448;28;20024;-73
2022/04/08 07:31:01;;;;;;;31.27;12.32;;;;;;;;;;5118295;28;20451;-73
2022/04/08 07:33:27;;;;;;;32.53;10.98;;;;;;;;;;5116923;28;20036;-72
2022/04/08 07:35:53;;;;;;;36.78;12.32;;;;;;;;;;5117995;28;20444;-73
2022/04/08 07:38:19;;;;;;;41.15;11.68;;;;;;;;;;5119016;28;20022;-74
2022/04/08 07:40:45;;;;;;;33.75;10.20;;;;;;;;;;5118313;28;20020;-71
2022/04/08 07:43:11;;;;;;;36.42;10.15;;;;;;;;;;5118258;28;20023;-72
2022/04/08 07:45:37;;;;;;;37.08;9.77;;;;;;;;;;5118109;28;20042;-74
2022/04/08 07:48:04;;;;;;;31.60;11.38;;;;;;;;;;5119873;28;20492;-72
2022/04/08 07:50:30;;;;;;;36.97;10.07;;;;;;;;;;5121385;28;20043;-72
2022/04/08 07:52:56;;;;;;;35.88;10.80;;;;;;;;;;5122882;28;20024;-73
2022/04/08 07:55:24;;;;;;;25.10;9.65;;;;;;;;;;5117342;28;20019;-73
2022/04/08 07:57:51;;;;;;;36.45;8.70;;;;;;;;;;5119068;28;20370;-73
2022/04/08 08:00:21;;;;;;;28.65;9.30;;;;;;;;;;5117362;28;20149;-73
2022/04/08 08:02:47;;;;;;;29.27;9.73;;;;;;;;;;5115990;28;20068;-71
2022/04/08 08:05:13;;;;;;;47.10;11.70;;;;;;;;;;5116744;28;20024;-72
2022/04/08 08:07:52;;;;;;;38.72;10.35;;;;;;;;;;5116457;28;20298;-72
2022/04/08 08:10:21;;;;;;;27.90;8.88;;;;;;;;;;5115668;28;20077;-73
2022/04/08 08:12:47;;;;;;;29.02;9.68;;;;;;;;;;5114548;28;20039;-73
2022/04/08 08:15:15;;;;;;;26.55;7.68;;;;;;;;;;5116673;28;20027;-73
2022/04/08 08:17:41;;;;;;;26.20;9.88;;;;;;;;;;5118032;28;20046;-73
2022/04/08 08:20:08;;;;;;;22.58;7.63;;;;;;;;;;5117508;28;20026;-72
2022/04/08 08:22:34;;;;;;;18.67;6.30;;;;;;;;;;5117507;28;20417;-73
2022/04/08 08:25:01;;;;;;;23.63;7.88;;;;;;;;;;5115748;28;20023;-72
2022/04/08 08:27:27;;;;;;;23.98;6.22;;;;;;;;;;5116648;28;20317;-72
2022/04/08 08:29:53;;;;;;;36.70;8.60;;;;;;;;;;5115109;28;20092;-72
2022/04/08 08:32:19;;;;;;;21.23;6.55;;;;;;;;;;5116446;28;20090;-72
2022/04/08 08:34:45;;;;;;;23.92;7.43;;;;;;;;;;5117022;28;20031;-72
2022/04/08 08:37:11;;;;;;;34.40;12.13;;;;;;;;;;5116159;28;20111;-72
2022/04/08 08:39:37;;;;;;;26.08;7.10;;;;;;;;;;5116890;28;20020;-73
2022/04/08 08:42:03;;;;;;;19.10;5.53;;;;;;;;;;5117719;28;20024;-73
2022/04/08 08:44:29;;;;;;;23.20;5.18;;;;;;;;;;5117038;28;20007;-74
2022/04/08 08:46:57;;;;;;;23.95;4.50;;;;;;;;;;5114803;28;20031;-73
2022/04/08 08:49:25;;;;;;;25.95;7.30;;;;;;;;;;5114564;28;20084;-74
2022/04/08 08:52:01;;;;;;;28.75;5.93;;;;;;;;;;5118998;28;20102;-72
2022/04/08 08:54:27;;;;;;;27.80;7.68;;;;;;;;;;5118199;28;20024;-72
2022/04/08 08:56:54;;;;;;;29.33;4.97;;;;;;;;;;5099131;28;20383;-73
2022/04/08 08:59:20;;;;;;;25.55;4.88;;;;;;;;;;5120759;28;20030;-74
2022/04/08 09:01:48;;;;;;;16.92;6.28;;;;;;;;;;5117771;28;20024;-74
2022/04/08 09:04:17;;;;;;;26.58;6.05;;;;;;;;;;5115996;28;20031;-72
2022/04/08 09:06:43;;;;;;;22.73;8.75;;;;;;;;;;5116314;28;20020;-72
2022/04/08 09:09:11;;;;;;;39.70;11.02;;;;;;;;;;5115933;28;20031;-72
2022/04/08 09:11:37;;;;;;;21.05;5.20;;;;;;;;;;5119487;28;20030;-72
2022/04/08 09:14:04;;;;;;;22.50;6.07;;;;;;;;;;5121003;28;20076;-72
2022/04/08 09:16:35;;;;;;;23.75;7.60;;;;;;;;;;5120480;28;20344;-72
2022/04/08 09:19:09;;;;;;;31.58;7.45;;;;;;;;;;5120837;28;20028;-73
2022/04/08 09:21:35;;;;;;;18.13;5.45;;;;;;;;;;5120892;28;20016;-72
2022/04/08 09:24:07;;;;;;;20.05;5.78;;;;;;;;;;5120865;28;20027;-72
2022/04/08 09:26:36;;;;;;;32.65;8.20;;;;;;;;;;5120774;28;20027;-72
2022/04/08 09:29:04;;;;;;;32.33;6.53;;;;;;;;;;5118832;28;20032;-72
2022/04/08 09:31:32;;;;;;;28.40;6.30;;;;;;;;;;5120700;28;20421;-73
2022/04/08 09:33:58;;;;;;;23.83;5.25;;;;;;;;;;5119554;28;20023;-72
2022/04/08 09:36:27;;;;;;;24.42;5.45;;;;;;;;;;5119894;28;20340;-73
2022/04/08 09:38:54;;;;;;;23.63;7.45;;;;;;;;;;5120767;28;20098;-72
2022/04/08 09:41:20;;;;;;;19.73;5.25;;;;;;;;;;5119484;28;20031;-73
2022/04/08 09:43:45;;;;;;;20.70;5.68;;;;;;;;;;5120411;28;20023;-74
2022/04/08 09:46:21;;;;;;;15.85;4.65;;;;;;;;;;5118638;28;20374;-72
2022/04/08 09:48:48;;;;;;;29.63;5.68;;;;;;;;;;5120467;28;20073;-72
2022/04/08 09:51:16;;;;;;;33.08;7.97;;;;;;;;;;5119930;28;20022;-73
2022/04/08 09:53:42;;;;;;;26.77;5.15;;;;;;;;;;5118557;28;20019;-72
2022/04/08 09:56:15;;;;;;;29.08;5.07;;;;;;;;;;5120388;28;20022;-73
2022/04/08 09:58:45;;;;;;;21.83;4.65;;;;;;;;;;5120365;28;20016;-73
2022/04/08 10:01:12;;;;;;;29.90;6.00;;;;;;;;;;5119311;28;20371;-72
2022/04/08 10:03:38;;;;;;;17.73;6.03;;;;;;;;;;5119723;28;20020;-73
2022/04/08 10:06:04;;;;;;;24.90;6.63;;;;;;;;;;5118532;28;20299;-73
2022/04/08 10:08:30;;;;;;;29.98;4.35;;;;;;;;;;5118856;28;20432;-72
2022/04/08 10:11:16;;;;;;;24.88;5.30;;;;;;;;;;5118328;28;20020;-73
2022/04/08 10:14:06;;;;;;;19.10;6.13;;;;;;;;;;5119899;28;20050;-72
2022/04/08 10:16:32;;;;;;;19.85;5.53;;;;;;;;;;5122225;28;20072;-72
2022/04/08 10:19:04;;;;;;;35.80;6.25;;;;;;;;;;5119947;28;20031;-72
2022/04/08 10:21:40;;;;;;;20.05;4.90;;;;;;;;;;5117903;28;20045;-74
2022/04/08 10:24:10;;;;;;;18.80;4.28;;;;;;;;;;5119791;28;20060;-72
2022/04/08 10:26:54;;;;;;;27.60;5.88;;;;;;;;;;5119753;28;20080;-72
2022/04/08 10:29:20;;;;;;;11.90;3.83;;;;;;;;;;5118942;28;20035;-72
2022/04/08 10:31:54;;;;;;;29.33;5.72;;;;;;;;;;5119135;28;20149;-72
2022/04/08 10:34:21;;;;;;;21.55;5.68;;;;;;;;;;5119639;28;20032;-72
2022/04/08 10:36:47;;;;;;;18.15;5.32;;;;;;;;;;5119755;28;20102;-72
2022/04/08 10:39:14;;;;;;;21.77;4.93;;;;;;;;;;5119477;28;20103;-72
2022/04/08 10:42:00;;;;;;;24.13;6.18;;;;;;;;;;5118464;28;20024;-72
2022/04/08 10:44:35;;;;;;;35.65;5.93;;;;;;;;;;5119567;28;20047;-72
2022/04/08 10:47:05;;;;;;;23.10;4.45;;;;;;;;;;5118923;28;20012;-72
2022/04/08 10:49:32;;;;;;;20.10;4.85;;;;;;;;;;5119594;28;20138;-72
2022/04/08 10:51:57;;;;;;;29.17;4.22;;;;;;;;;;5118886;28;20102;-73
2022/04/08 10:54:33;;;;;;;27.75;4.30;;;;;;;;;;5119293;28;20027;-73
2022/04/08 10:56:59;;;;;;;16.67;4.00;;;;;;;;;;5119455;28;20015;-73
2022/04/08 10:59:26;;;;;;;19.30;4.20;;;;;;;;;;5117986;28;20510;-72
2022/04/08 11:01:56;;;;;;;21.30;5.03;;;;;;;;;;5118105;28;20115;-73
2022/04/08 11:04:26;;;;;;;27.80;5.97;;;;;;;;;;5119086;28;20110;-72
2022/04/08 11:06:52;;;;;;;21.13;4.78;;;;;;;;;;5119035;28;20107;-72
2022/04/08 11:09:18;;;;;;;28.80;6.10;;;;;;;;;;5119053;28;20032;-72
2022/04/08 11:11:46;;;;;;;54.03;9.57;;;;;;;;;;5118944;28;20088;-72
2022/04/08 11:14:12;;;;;;;25.80;5.72;;;;;;;;;;5117708;28;20113;-72
2022/04/08 11:16:39;;;;;;;32.95;5.82;;;;;;;;;;5118499;28;20057;-72
2022/04/08 11:19:10;;;;;;;26.13;5.88;;;;;;;;;;5117096;28;20015;-72
2022/04/08 11:21:37;;;;;;;28.30;7.70;;;;;;;;;;5118186;28;20016;-72
2022/04/08 11:24:03;;;;;;;18.60;4.75;;;;;;;;;;5118627;28;20489;-72
2022/04/08 11:26:30;;;;;;;16.55;4.72;;;;;;;;;;5118966;27;20514;-72
2022/04/08 11:28:56;;;;;;;21.80;5.13;;;;;;;;;;5118616;28;20024;-72
2022/04/08 11:31:23;;;;;;;26.25;7.53;;;;;;;;;;5118342;28;20025;-72
2022/04/08 11:33:49;;;;;;;32.47;6.32;;;;;;;;;;5118333;28;20071;-72
2022/04/08 11:36:20;;;;;;;27.20;8.98;;;;;;;;;;5118631;28;20434;-72
2022/04/08 11:38:46;;;;;;;36.50;6.93;;;;;;;;;;5118123;28;20026;-72
2022/04/08 11:41:23;;;;;;;32.58;6.97;;;;;;;;;;5117469;28;20393;-72
2022/04/08 11:43:49;;;;;;;34.78;5.97;;;;;;;;;;5118043;27;20043;-72
2022/04/08 11:46:15;;;;;;;33.90;5.95;;;;;;;;;;5117319;28;20026;-72
2022/04/08 11:48:41;;;;;;;23.33;4.05;;;;;;;;;;5118276;28;20072;-73
2022/04/08 11:51:08;;;;;;;23.02;5.05;;;;;;;;;;5117777;28;20027;-72
2022/04/08 11:53:43;;;;;;;33.80;5.25;;;;;;;;;;5118430;28;20371;-72
2022/04/08 11:56:10;;;;;;;32.97;4.57;;;;;;;;;;5118440;28;20020;-72
2022/04/08 11:58:36;;;;;;;32.75;7.72;;;;;;;;;;5117755;28;20019;-73
2022/04/08 12:01:03;;;;;;;20.63;4.63;;;;;;;;;;5118114;28;20416;-73
2022/04/08 12:03:34;;;;;;;36.60;6.18;;;;;;;;;;5118259;28;20065;-73
2022/04/08 12:06:00;;;;;;;30.27;5.82;;;;;;;;;;5118226;28;20107;-73
2022/04/08 12:08:27;;;;;;;26.08;4.53;;;;;;;;;;5117068;28;20016;-73
2022/04/08 12:10:59;;;;;;;30.15;5.25;;;;;;;;;;5118091;28;20051;-73
2022/04/08 12:13:27;;;;;;;26.50;4.85;;;;;;;;;;5118090;27;20027;-73
2022/04/08 12:15:54;;;;;;;18.85;6.18;;;;;;;;;;5117974;28;20019;-73
2022/04/08 12:18:22;;;;;;;24.90;5.50;;;;;;;;;;5116717;28;20051;-73
2022/04/08 12:20:55;;;;;;;33.15;8.55;;;;;;;;;;5116819;28;20029;-73
2022/04/08 12:23:22;;;;;;;29.80;5.45;;;;;;;;;;5118047;28;20042;-72
2022/04/08 12:25:52;;;;;;;36.33;9.60;;;;;;;;;;5117900;28;20028;-72
2022/04/08 12:28:21;;;;;;;28.15;7.30;;;;;;;;;;5118006;28;20285;-72
2022/04/08 12:30:47;;;;;;;29.88;5.50;;;;;;;;;;5117867;28;20077;-73
2022/04/08 12:33:13;;;;;;;28.52;7.95;;;;;;;;;;5117813;28;20031;-73
2022/04/08 12:35:39;;;;;;;32.55;7.50;;;;;;;;;;5117968;28;20035;-73
2022/04/08 12:38:05;;;;;;;34.03;10.05;;;;;;;;;;5117115;28;20031;-72
2022/04/08 12:40:32;;;;;;;38.40;9.07;;;;;;;;;;5117817;28;20023;-72
2022/04/08 12:43:00;;;;;;;25.05;9.45;;;;;;;;;;5116761;28;20019;-72
2022/04/08 12:45:28;;;;;;;47.88;8.50;;;;;;;;;;5116931;28;20107;-73
2022/04/08 12:47:54;;;;;;;36.13;6.85;;;;;;;;;;5117147;28;20016;-73
2022/04/08 12:50:20;;;;;;;48.75;7.97;;;;;;;;;;5117661;28;20067;-73
2022/04/08 12:52:46;;;;;;;38.53;10.10;;;;;;;;;;5117477;28;20095;-73
2022/04/08 12:55:12;;;;;;;25.10;6.60;;;;;;;;;;5117818;28;20020;-73
2022/04/08 12:57:40;;;;;;;33.90;6.50;;;;;;;;;;5117096;28;20425;-72
2022/04/08 13:00:11;;;;;;;40.03;6.78;;;;;;;;;;5117117;28;20023;-72
2022/04/08 13:02:41;;;;;;;32.88;7.13;;;;;;;;;;5117618;28;20020;-72
2022/04/08 13:05:07;;;;;;;23.35;4.43;;;;;;;;;;5117703;28;20015;-72
2022/04/08 13:07:33;;;;;;;38.92;8.43;;;;;;;;;;5116620;28;20432;-73
2022/04/08 13:09:59;;;;;;;24.08;6.22;;;;;;;;;;5117400;28;20043;-72
2022/04/08 13:12:25;;;;;;;26.73;6.30;;;;;;;;;;5116959;28;20019;-73
2022/04/08 13:14:52;;;;;;;32.95;10.10;;;;;;;;;;5117988;28;20019;-73
2022/04/08 13:17:18;;;;;;;30.38;6.53;;;;;;;;;;5117614;28;20020;-73
2022/04/08 13:19:44;;;;;;;36.60;8.48;;;;;;;;;;5116433;28;20318;-73
2022/04/08 13:22:12;;;;;;;26.60;7.95;;;;;;;;;;5117352;28;20035;-72
2022/04/08 13:24:38;;;;;;;27.42;9.43;;;;;;;;;;5116432;28;20314;-72
2022/04/08 13:27:04;;;;;;;31.42;10.45;;;;;;;;;;5117247;28;20439;-73
2022/04/08 13:29:30;;;;;;;39.13;11.10;;;;;;;;;;5116792;28;20126;-73
2022/04/08 13:31:56;;;;;;;42.42;13.23;;;;;;;;;;5117555;28;20023;-73
2022/04/08 13:34:22;;;;;;;43.47;16.10;;;;;;;;;;5117804;28;20024;-73
2022/04/08 13:36:48;;;;;;;46.10;18.30;;;;;;;;;;5116184;28;20026;-73
2022/04/08 13:39:14;;;;;;;55.08;22.20;;;;;;;;;;5117563;28;20076;-73
2022/04/08 13:41:42;;;;;;;66.22;25.77;;;;;;;;;;5115892;28;20026;-73
2022/04/08 13:44:08;;;;;;;64.35;23.35;;;;;;;;;;5116347;28;20023;-73
2022/04/08 13:46:34;;;;;;;68.15;22.42;;;;;;;;;;5124476;28;20038;-73
2022/04/08 13:49:00;;;;;;;66.10;20.42;;;;;;;;;;5118798;28;20058;-73
2022/04/08 13:51:26;;;;;;;55.13;15.82;;;;;;;;;;5117274;28;20426;-73
2022/04/08 13:53:52;;;;;;;45.53;13.30;;;;;;;;;;5117057;28;20374;-73
2022/04/08 13:56:18;;;;;;;38.53;13.38;;;;;;;;;;5118428;28;20015;-73
2022/04/08 13:58:44;;;;;;;45.15;15.20;;;;;;;;;;5121956;28;20363;-73
2022/04/08 14:01:10;;;;;;;49.22;12.60;;;;;;;;;;5120707;28;20045;-73
2022/04/08 14:03:36;;;;;;;37.00;9.85;;;;;;;;;;5120643;28;20417;-73
2022/04/08 14:06:03;;;;;;;32.53;8.85;;;;;;;;;;5118845;28;20011;-73
2022/04/08 14:08:29;;;;;;;39.80;10.18;;;;;;;;;;5120729;28;20030;-73
2022/04/08 14:10:55;;;;;;;35.38;8.75;;;;;;;;;;5121315;28;20038;-73
2022/04/08 14:13:21;;;;;;;44.20;11.65;;;;;;;;;;5119303;28;20486;-73
2022/04/08 14:15:47;;;;;;;27.65;8.55;;;;;;;;;;5120433;28;20020;-73
2022/04/08 14:18:13;;;;;;;42.97;12.35;;;;;;;;;;5120813;28;20051;-73
2022/04/08 14:20:39;;;;;;;34.95;11.45;;;;;;;;;;5118742;28;20016;-73
2022/04/08 14:23:05;;;;;;;30.92;8.68;;;;;;;;;;5120456;28;20428;-73
2022/04/08 14:25:31;;;;;;;39.60;8.73;;;;;;;;;;5120415;28;20023;-73
2022/04/08 14:27:58;;;;;;;33.58;9.40;;;;;;;;;;5120835;28;20019;-73